Time;durP1;ratioP1;P1;durP2;ratioP2;P2;SDS_P1;SDS_P2;PMS_P1;PMS_P2;Temp;Humidity;BMP_temperature;BMP_pressure;BME280_temperature;BME280_humidity;BME280_pressure;Samples;Min_cycle;Max_cycle;Signal;HPM_P1;HPM_P2
2022/10/06 00:00:16;;;;;;;1.00;0.47;;;15.20;99.90;;;;;;4394270;32;20066;-76
2022/10/06 00:02:42;;;;;;;0.40;0.40;;;15.20;99.90;;;;;;4389636;32;20635;-75
2022/10/06 00:05:07;;;;;;;0.60;0.60;;;15.20;99.90;;;;;;4373445;32;20432;-76
2022/10/06 00:07:34;;;;;;;0.32;0.32;;;15.20;99.90;;;;;;4389827;32;20086;-77
2022/10/06 00:10:00;;;;;;;0.40;0.40;;;15.20;99.90;;;;;;4394508;32;20066;-76
2022/10/06 00:12:25;;;;;;;0.32;0.32;;;15.20;99.90;;;;;;4391594;32;20086;-76
2022/10/06 00:14:51;;;;;;;0.50;0.50;;;15.20;99.90;;;;;;4391813;32;20066;-76
2022/10/06 00:17:17;;;;;;;0.47;0.47;;;15.20;99.90;;;;;;4392357;32;20111;-77
2022/10/06 00:19:42;;;;;;;0.30;0.30;;;15.20;99.90;;;;;;4391806;32;20066;-76
2022/10/06 00:22:07;;;;;;;0.55;0.50;;;15.20;99.90;;;;;;4393509;32;20114;-76
2022/10/06 00:24:33;;;;;;;0.85;0.80;;;15.20;99.90;;;;;;4394460;32;20502;-77
2022/10/06 00:26:59;;;;;;;0.50;0.50;;;15.20;99.90;;;;;;4395106;32;20101;-77
2022/10/06 00:29:25;;;;;;;0.32;0.32;;;15.20;99.90;;;;;;4391985;32;20087;-76
2022/10/06 00:31:50;;;;;;;0.37;0.37;;;15.20;99.90;;;;;;4393059;32;20073;-76
2022/10/06 00:34:15;;;;;;;0.40;0.40;;;15.30;99.90;;;;;;4376021;32;20081;-75
2022/10/06 00:36:41;;;;;;;0.68;0.68;;;15.20;99.90;;;;;;4381877;32;20074;-76
2022/10/06 00:39:06;;;;;;;0.30;0.30;;;15.30;99.90;;;;;;4393463;32;20106;-76
2022/10/06 00:41:32;;;;;;;0.75;0.75;;;15.30;99.90;;;;;;4392077;32;20456;-77
2022/10/06 00:43:58;;;;;;;3.20;2.08;;;15.30;99.90;;;;;;4391117;32;20137;-76
2022/10/06 00:46:27;;;;;;;0.30;0.30;;;15.40;99.90;;;;;;4393086;32;20221;-78
2022/10/06 00:49:08;;;;;;;0.50;0.50;;;15.40;99.90;;;;;;4390894;32;20130;-76
2022/10/06 00:51:37;;;;;;;0.95;0.60;;;15.50;99.90;;;;;;4393483;32;20078;-76
2022/10/06 00:54:03;;;;;;;0.30;0.30;;;15.50;99.90;;;;;;4392792;32;20078;-76
2022/10/06 00:56:30;;;;;;;0.98;0.65;;;15.50;99.90;;;;;;4393440;32;20081;-76
2022/10/06 00:58:55;;;;;;;0.55;0.55;;;15.50;99.90;;;;;;4392497;32;20101;-78
2022/10/06 01:01:21;;;;;;;0.55;0.55;;;15.60;99.90;;;;;;4391471;32;20813;-76
2022/10/06 01:03:53;;;;;;;0.57;0.57;;;15.70;99.90;;;;;;4382102;32;20126;-75
2022/10/06 01:06:19;;;;;;;0.50;0.50;;;15.60;99.90;;;;;;4376810;32;20062;-75
2022/10/06 01:08:45;;;;;;;0.57;0.57;;;15.70;99.90;;;;;;4393722;32;20513;-75
2022/10/06 01:11:13;;;;;;;0.40;0.40;;;15.80;99.90;;;;;;4391322;32;20175;-75
2022/10/06 01:13:39;;;;;;;0.37;0.37;;;15.80;99.90;;;;;;4392770;32;20086;-77
2022/10/06 01:16:23;;;;;;;0.40;0.40;;;15.80;99.90;;;;;;4395370;32;20094;-76
2022/10/06 01:18:50;;;;;;;0.70;0.70;;;15.90;99.90;;;;;;4392689;32;20153;-78
2022/10/06 01:21:28;;;;;;;0.40;0.40;;;15.90;99.90;;;;;;4390980;32;20404;-77
2022/10/06 01:23:56;;;;;;;0.43;0.43;;;15.80;99.90;;;;;;4393228;32;20087;-77
2022/10/06 01:26:23;;;;;;;0.40;0.40;;;15.90;99.90;;;;;;4392344;32;20094;-77
2022/10/06 01:28:48;;;;;;;1.12;0.60;;;15.90;99.90;;;;;;4391610;32;20096;-78
2022/10/06 01:31:14;;;;;;;0.40;0.40;;;15.90;99.90;;;;;;4391463;32;20133;-77
2022/10/06 01:33:40;;;;;;;50.42;2.78;;;15.90;99.90;;;;;;4379041;32;20293;-76
2022/10/06 01:36:06;;;;;;;1.23;0.68;;;15.90;99.90;;;;;;4372964;32;20083;-78
2022/10/06 01:38:31;;;;;;;17.42;0.65;;;15.90;99.90;;;;;;4391486;32;20098;-77
2022/10/06 01:40:57;;;;;;;1.70;0.60;;;15.90;99.90;;;;;;4394031;32;20070;-77
2022/10/06 01:43:23;;;;;;;0.40;0.40;;;15.90;99.90;;;;;;4393949;32;20565;-77
2022/10/06 01:45:53;;;;;;;0.50;0.50;;;15.90;99.90;;;;;;4396884;32;20086;-77
2022/10/06 01:48:20;;;;;;;;;;;15.80;99.90;;;;;;4394449;32;20070;-76
2022/10/06 01:50:45;;;;;;;0.77;0.77;;;15.80;99.90;;;;;;4395969;32;19953;-77
2022/10/06 01:53:11;;;;;;;0.68;0.68;;;15.80;99.90;;;;;;4393842;32;20062;-78
2022/10/06 01:55:36;;;;;;;0.47;0.47;;;15.70;99.90;;;;;;4395584;32;20544;-77
2022/10/06 01:58:02;;;;;;;1.65;0.93;;;15.70;99.90;;;;;;4390788;32;20085;-77
2022/10/06 02:00:27;;;;;;;0.60;0.60;;;15.70;99.90;;;;;;4392963;32;20078;-77
2022/10/06 02:02:53;;;;;;;0.32;0.32;;;15.60;99.90;;;;;;4388879;32;20106;-76
2022/10/06 02:05:19;;;;;;;0.60;0.60;;;15.60;99.90;;;;;;4374090;32;20070;-76
2022/10/06 02:07:44;;;;;;;1.40;1.30;;;15.60;99.90;;;;;;4388380;32;20530;-78
2022/10/06 02:10:10;;;;;;;0.60;0.60;;;15.50;99.90;;;;;;4391302;32;20070;-75
2022/10/06 02:12:35;;;;;;;2.15;0.57;;;15.50;99.90;;;;;;4394252;32;20054;-78
2022/10/06 02:15:01;;;;;;;0.50;0.50;;;15.50;99.90;;;;;;4395300;32;20058;-78
2022/10/06 02:17:28;;;;;;;0.88;0.73;;;15.40;99.90;;;;;;4392246;32;20050;-77
2022/10/06 02:19:53;;;;;;;0.35;0.35;;;15.40;99.90;;;;;;4391271;32;20501;-76
2022/10/06 02:22:18;;;;;;;1.10;0.70;;;15.40;99.90;;;;;;4397039;32;20577;-76
2022/10/06 02:24:44;;;;;;;0.50;0.50;;;15.40;99.90;;;;;;4391837;32;20513;-77
2022/10/06 02:27:10;;;;;;;2.60;1.40;;;15.40;99.90;;;;;;4393018;32;20086;-76
2022/10/06 02:29:35;;;;;;;12.80;0.60;;;15.40;99.90;;;;;;4393106;32;20066;-76
2022/10/06 02:32:01;;;;;;;0.40;0.40;;;15.40;99.90;;;;;;4396201;32;21324;-76
2022/10/06 02:34:26;;;;;;;3.03;1.00;;;15.40;99.90;;;;;;4377226;32;20070;-75
2022/10/06 02:36:52;;;;;;;0.40;0.40;;;15.30;99.90;;;;;;4382253;32;20074;-76
2022/10/06 02:39:18;;;;;;;0.68;0.68;;;15.30;99.90;;;;;;4392349;32;20482;-76
2022/10/06 02:41:43;;;;;;;0.50;0.50;;;15.30;99.90;;;;;;4392261;32;20066;-76
2022/10/06 02:44:09;;;;;;;0.65;0.57;;;15.30;99.90;;;;;;4392603;32;20082;-76
2022/10/06 02:46:34;;;;;;;0.60;0.60;;;15.30;99.90;;;;;;4394733;32;20069;-76
2022/10/06 02:49:00;;;;;;;0.50;0.50;;;15.30;99.90;;;;;;4393122;32;20077;-77
2022/10/06 02:51:25;;;;;;;0.57;0.57;;;15.30;99.90;;;;;;4393316;32;20077;-77
2022/10/06 02:53:51;;;;;;;1.10;0.70;;;15.30;99.90;;;;;;4392551;32;20098;-75
2022/10/06 02:56:21;;;;;;;1.08;0.68;;;15.30;99.90;;;;;;4396069;32;20078;-77
2022/10/06 02:58:47;;;;;;;0.68;0.60;;;15.30;99.90;;;;;;4391088;32;20091;-76
2022/10/06 03:01:15;;;;;;;0.50;0.50;;;15.30;99.90;;;;;;4393345;32;20129;-76
2022/10/06 03:03:41;;;;;;;0.77;0.55;;;15.30;99.90;;;;;;4382164;32;20067;-76
2022/10/06 03:06:26;;;;;;;0.50;0.50;;;15.30;99.90;;;;;;4375521;32;20070;-75
2022/10/06 03:08:55;;;;;;;0.65;0.65;;;15.30;99.90;;;;;;4391424;32;20125;-76
2022/10/06 03:11:24;;;;;;;0.95;0.88;;;15.30;99.90;;;;;;4396209;32;20110;-76
2022/10/06 03:13:50;;;;;;;0.50;0.50;;;15.30;99.90;;;;;;4397602;32;20430;-77
2022/10/06 03:16:19;;;;;;;0.50;0.50;;;15.30;99.90;;;;;;4394671;32;20066;-77
2022/10/06 03:18:46;;;;;;;0.40;0.40;;;15.40;99.90;;;;;;4393609;32;20113;-76
2022/10/06 03:21:14;;;;;;;0.40;0.40;;;15.40;99.90;;;;;;4391662;32;20650;-77
2022/10/06 03:23:41;;;;;;;0.30;0.30;;;15.40;99.90;;;;;;4392056;32;20066;-76
2022/10/06 03:26:07;;;;;;;0.98;0.70;;;15.40;99.90;;;;;;4396470;32;20079;-76
2022/10/06 03:28:33;;;;;;;0.50;0.50;;;15.50;99.90;;;;;;4391240;32;20117;-77
2022/10/06 03:31:01;;;;;;;0.93;0.85;;;15.40;99.90;;;;;;4391200;32;20565;-77
2022/10/06 03:33:28;;;;;;;0.40;0.40;;;15.40;99.90;;;;;;4381702;32;20203;-75
2022/10/06 03:36:11;;;;;;;0.47;0.47;;;15.50;99.90;;;;;;4375611;32;20062;-76
2022/10/06 03:38:37;;;;;;;0.40;0.40;;;15.40;99.90;;;;;;4379715;32;20097;-76
2022/10/06 03:41:09;;;;;;;0.50;0.50;;;15.50;99.90;;;;;;4389601;32;20095;-77
2022/10/06 03:43:36;;;;;;;0.50;0.50;;;15.50;99.90;;;;;;4389357;32;20082;-77
2022/10/06 03:46:03;;;;;;;2.03;1.15;;;15.40;99.90;;;;;;4394315;32;20576;-77
2022/10/06 03:48:32;;;;;;;1.17;0.85;;;15.50;99.90;;;;;;4393456;32;20498;-76
2022/10/06 03:50:59;;;;;;;0.45;0.45;;;15.40;99.90;;;;;;4398707;32;20522;-77
2022/10/06 03:53:27;;;;;;;0.50;0.50;;;15.40;99.90;;;;;;4395388;32;20102;-76
2022/10/06 03:56:11;;;;;;;0.45;0.45;;;15.40;99.90;;;;;;4393740;32;20067;-77
2022/10/06 03:58:39;;;;;;;0.45;0.40;;;15.50;99.90;;;;;;4395000;32;20558;-77
2022/10/06 04:01:09;;;;;;;0.62;0.60;;;15.50;99.90;;;;;;4392556;32;20087;-76
2022/10/06 04:03:34;;;;;;;0.32;0.32;;;15.50;99.90;;;;;;4386769;32;20070;-76
2022/10/06 04:06:04;;;;;;;0.37;0.37;;;15.60;99.90;;;;;;4380459;32;20065;-74
2022/10/06 04:08:32;;;;;;;0.45;0.45;;;15.60;99.90;;;;;;4391439;32;20141;-75
2022/10/06 04:11:19;;;;;;;0.93;0.55;;;15.60;99.90;;;;;;4393733;32;20097;-75
2022/10/06 04:13:46;;;;;;;0.50;0.50;;;15.60;99.90;;;;;;4379609;32;20059;-75
2022/10/06 04:16:17;;;;;;;0.47;0.47;;;15.70;99.90;;;;;;4391783;32;20078;-76
2022/10/06 04:18:43;;;;;;;;;;;15.80;99.90;;;;;;4392530;32;20074;-76
2022/10/06 04:21:09;;;;;;;0.43;0.43;;;15.80;99.90;;;;;;4389327;32;19982;-76
2022/10/06 04:23:35;;;;;;;0.30;0.30;;;15.80;99.90;;;;;;4349950;32;20070;-75
2022/10/06 04:26:05;;;;;;;0.30;0.30;;;15.90;99.90;;;;;;4369422;32;20206;-75
2022/10/06 04:28:31;;;;;;;0.47;0.47;;;15.80;99.90;;;;;;4352086;32;20098;-74
2022/10/06 04:30:58;;;;;;;1.20;0.50;;;15.80;99.90;;;;;;4366438;32;21155;-76
2022/10/06 04:33:23;;;;;;;0.50;0.50;;;15.80;99.90;;;;;;4345085;32;20078;-76
2022/10/06 04:35:58;;;;;;;0.30;0.30;;;15.90;99.90;;;;;;4350681;32;20161;-74
2022/10/06 04:38:23;;;;;;;0.40;0.40;;;15.80;99.90;;;;;;4385483;32;20094;-76
2022/10/06 04:40:48;;;;;;;0.50;0.50;;;15.80;99.90;;;;;;4396484;32;20066;-78
2022/10/06 04:43:14;;;;;;;0.52;0.37;;;15.80;99.90;;;;;;4396478;32;20110;-76
2022/10/06 04:45:39;;;;;;;0.30;0.30;;;15.90;99.90;;;;;;4396407;32;20435;-76
2022/10/06 04:48:05;;;;;;;0.50;0.50;;;15.80;99.90;;;;;;4394177;32;20098;-75
2022/10/06 04:50:30;;;;;;;0.37;0.37;;;15.90;99.90;;;;;;4393592;32;20253;-77
2022/10/06 04:52:56;;;;;;;0.30;0.30;;;15.80;99.90;;;;;;4365604;32;20865;-74
2022/10/06 04:55:21;;;;;;;0.50;0.50;;;15.80;99.90;;;;;;4360075;32;20088;-75
2022/10/06 04:57:47;;;;;;;0.62;0.62;;;15.70;99.90;;;;;;4381264;32;21248;-76
2022/10/06 05:00:27;;;;;;;0.57;0.57;;;15.70;99.90;;;;;;4391084;32;20066;-76
2022/10/06 05:02:55;;;;;;;0.62;0.62;;;15.70;99.90;;;;;;4371878;32;20408;-74
2022/10/06 05:05:20;;;;;;;0.30;0.30;;;15.70;99.90;;;;;;4343535;32;20138;-77
2022/10/06 05:07:46;;;;;;;0.40;0.40;;;15.70;99.90;;;;;;4356156;32;20134;-76
2022/10/06 05:10:11;;;;;;;4.30;1.62;;;15.70;99.90;;;;;;4343718;32;20803;-76
2022/10/06 05:12:37;;;;;;;0.30;0.30;;;15.70;99.90;;;;;;4348676;32;20299;-77
2022/10/06 05:15:03;;;;;;;0.30;0.30;;;15.70;99.90;;;;;;4347408;32;20137;-76
2022/10/06 05:17:28;;;;;;;0.40;0.40;;;15.70;99.90;;;;;;4345027;32;20530;-76
2022/10/06 05:19:54;;;;;;;0.40;0.40;;;15.60;99.90;;;;;;4303613;32;20879;-74
2022/10/06 05:22:19;;;;;;;0.40;0.40;;;15.60;99.90;;;;;;4339880;32;20109;-76
2022/10/06 05:24:45;;;;;;;0.40;0.40;;;15.60;99.90;;;;;;4294185;32;20148;-74
2022/10/06 05:27:11;;;;;;;0.75;0.75;;;15.50;99.90;;;;;;4333562;32;20210;-74
2022/10/06 05:29:36;;;;;;;0.50;0.50;;;15.50;99.90;;;;;;4303753;32;20649;-74
2022/10/06 05:32:02;;;;;;;0.40;0.40;;;15.50;99.90;;;;;;4307549;32;20269;-75
2022/10/06 05:34:27;;;;;;;1.67;0.50;;;15.50;99.90;;;;;;4318699;32;20313;-75
2022/10/06 05:36:53;;;;;;;0.32;0.32;;;15.50;99.90;;;;;;4340805;32;20074;-75
2022/10/06 05:39:18;;;;;;;0.37;0.37;;;15.50;99.90;;;;;;4337708;32;20249;-75
2022/10/06 05:41:44;;;;;;;0.20;0.20;;;15.50;99.90;;;;;;4341307;32;20245;-75
2022/10/06 05:44:09;;;;;;;0.75;0.60;;;15.50;99.90;;;;;;4346050;32;20118;-76
2022/10/06 05:46:35;;;;;;;0.30;0.30;;;15.50;99.90;;;;;;4351112;32;20106;-74
2022/10/06 05:49:03;;;;;;;0.50;0.50;;;15.40;99.90;;;;;;4357442;32;20859;-74
2022/10/06 05:51:31;;;;;;;0.30;0.30;;;15.40;99.90;;;;;;4355073;32;20201;-75
2022/10/06 05:53:57;;;;;;;0.40;0.40;;;15.40;99.90;;;;;;4359758;32;20369;-74
2022/10/06 05:56:26;;;;;;;0.30;0.30;;;15.30;99.90;;;;;;4371430;32;20426;-76
2022/10/06 05:58:54;;;;;;;0.30;0.30;;;15.30;99.90;;;;;;4350786;32;20158;-75
2022/10/06 06:01:39;;;;;;;0.47;0.47;;;15.30;99.90;;;;;;4344671;32;20090;-77
2022/10/06 06:04:08;;;;;;;0.40;0.40;;;15.20;99.90;;;;;;4338462;32;20205;-76
2022/10/06 06:06:40;;;;;;;0.30;0.30;;;15.10;99.90;;;;;;4352200;32;20184;-77
2022/10/06 06:09:10;;;;;;;0.30;0.30;;;15.10;99.90;;;;;;4362633;32;20155;-76
2022/10/06 06:11:40;;;;;;;0.60;0.60;;;15.00;99.90;;;;;;4357706;32;21490;-76
2022/10/06 06:14:08;;;;;;;0.30;0.30;;;15.00;99.90;;;;;;4353869;32;20431;-76
2022/10/06 06:16:35;;;;;;;0.30;0.30;;;14.90;99.90;;;;;;4359819;32;20153;-76
2022/10/06 06:19:01;;;;;;;0.25;0.25;;;14.90;99.90;;;;;;4352244;32;20342;-75
2022/10/06 06:21:27;;;;;;;1.00;0.60;;;14.90;99.90;;;;;;4348647;32;20086;-76
2022/10/06 06:23:53;;;;;;;0.75;0.75;;;14.90;99.90;;;;;;4350518;32;20633;-75
2022/10/06 06:26:24;;;;;;;0.25;0.25;;;14.90;99.90;;;;;;4352224;32;20078;-76
2022/10/06 06:28:51;;;;;;;0.30;0.30;;;14.90;99.90;;;;;;4357730;32;20210;-77
2022/10/06 06:31:20;;;;;;;0.40;0.40;;;14.80;99.90;;;;;;4334052;32;20952;-77
2022/10/06 06:33:46;;;;;;;0.30;0.30;;;14.90;99.90;;;;;;4334748;32;20237;-77
2022/10/06 06:36:16;;;;;;;0.20;0.20;;;14.90;99.90;;;;;;4345636;32;20577;-75
2022/10/06 06:38:44;;;;;;;0.30;0.30;;;15.00;99.90;;;;;;4346459;32;20142;-76
2022/10/06 06:41:28;;;;;;;0.40;0.40;;;15.00;99.90;;;;;;4343812;32;21693;-76
2022/10/06 06:43:54;;;;;;;0.30;0.30;;;15.00;99.90;;;;;;4349137;32;20711;-76
2022/10/06 06:46:23;;;;;;;0.40;0.40;;;15.00;99.90;;;;;;4364995;32;20109;-74
2022/10/06 06:48:51;;;;;;;0.40;0.40;;;15.00;99.90;;;;;;4358419;32;20131;-75
2022/10/06 06:51:21;;;;;;;0.30;0.30;;;15.00;99.90;;;;;;4344401;32;20644;-75
2022/10/06 06:53:47;;;;;;;0.30;0.30;;;15.00;99.90;;;;;;4353780;32;20293;-75
2022/10/06 06:56:13;;;;;;;0.40;0.40;;;15.10;99.90;;;;;;4356013;32;20777;-76
2022/10/06 06:58:40;;;;;;;0.28;0.28;;;15.20;99.90;;;;;;4361807;32;20110;-75
2022/10/06 07:01:13;;;;;;;0.30;0.30;;;15.20;99.90;;;;;;4337427;32;20105;-76
2022/10/06 07:03:40;;;;;;;0.40;0.40;;;15.20;99.90;;;;;;4335568;32;20224;-75
2022/10/06 07:06:08;;;;;;;0.40;0.40;;;15.10;99.90;;;;;;4337300;32;20098;-75
2022/10/06 07:08:36;;;;;;;0.43;0.43;;;15.10;99.90;;;;;;4352017;32;20473;-76
2022/10/06 07:11:21;;;;;;;0.40;0.40;;;15.10;99.90;;;;;;4349121;32;21187;-76
2022/10/06 07:13:51;;;;;;;0.40;0.40;;;15.10;99.90;;;;;;4348649;32;20649;-75
2022/10/06 07:25:10;;;;;;;0.30;0.30;;;15.10;99.90;;;;;;4334584;32;20316;-76
2022/10/06 07:27:24;;;;;;;0.40;0.40;;;15.10;99.90;;;;;;4340005;32;20606;-75
2022/10/06 07:29:53;;;;;;;0.30;0.30;;;15.10;99.90;;;;;;4341459;32;20329;-75
2022/10/06 07:32:23;;;;;;;1.77;1.02;;;15.10;99.90;;;;;;4322198;32;20854;-75
2022/10/06 07:34:49;;;;;;;0.75;0.50;;;15.10;99.90;;;;;;4340529;32;20093;-75
2022/10/06 07:37:16;;;;;;;0.30;0.30;;;15.10;99.90;;;;;;4356121;32;20162;-76
2022/10/06 07:39:43;;;;;;;0.60;0.60;;;15.20;99.90;;;;;;4366656;32;20804;-76
2022/10/06 07:42:13;;;;;;;0.80;0.60;;;15.20;99.90;;;;;;4367886;32;20180;-75
2022/10/06 07:44:40;;;;;;;0.50;0.50;;;15.20;99.90;;;;;;4375370;32;20113;-75
2022/10/06 07:47:05;;;;;;;0.57;0.57;;;15.20;99.90;;;;;;4366897;32;20121;-76
2022/10/06 07:49:31;;;;;;;0.30;0.30;;;15.30;99.90;;;;;;4360108;32;20121;-75
2022/10/06 07:51:57;;;;;;;1.12;1.02;;;15.30;99.90;;;;;;4347271;32;20362;-77
2022/10/06 07:54:24;;;;;;;0.88;0.82;;;15.30;99.90;;;;;;4337851;32;20217;-77
2022/10/06 07:56:51;;;;;;;0.40;0.40;;;15.30;99.90;;;;;;4339239;32;20086;-77
2022/10/06 07:59:17;;;;;;;0.47;0.47;;;15.40;99.90;;;;;;4349908;32;20771;-75
2022/10/06 08:01:44;;;;;;;0.30;0.30;;;15.50;99.90;;;;;;4359972;32;20105;-76
2022/10/06 08:04:11;;;;;;;0.65;0.57;;;15.50;99.90;;;;;;4343489;32;20157;-76
2022/10/06 08:06:37;;;;;;;0.45;0.45;;;15.40;99.90;;;;;;4345142;32;20137;-77
2022/10/06 08:09:04;;;;;;;0.35;0.35;;;15.40;99.90;;;;;;4356449;32;20101;-78
2022/10/06 08:11:29;;;;;;;0.70;0.70;;;15.40;99.90;;;;;;4362169;32;20125;-76
2022/10/06 08:13:55;;;;;;;3.15;1.15;;;15.40;99.90;;;;;;4366273;32;20097;-77
2022/10/06 08:16:23;;;;;;;2.62;0.55;;;15.40;99.90;;;;;;4353508;32;20135;-77
2022/10/06 08:18:52;;;;;;;0.32;0.32;;;15.30;99.90;;;;;;4351285;32;20230;-77
2022/10/06 08:21:22;;;;;;;0.30;0.30;;;15.50;99.90;;;;;;4338821;32;21304;-76
2022/10/06 08:23:49;;;;;;;0.35;0.35;;;15.50;99.90;;;;;;4344009;32;20342;-78
2022/10/06 08:28:46;;;;;;;0.40;0.40;;;15.60;99.90;;;;;;4330894;32;20357;-66
2022/10/06 08:31:14;;;;;;;0.43;0.43;;;15.60;99.90;;;;;;4330796;32;20110;-66
2022/10/06 08:33:41;;;;;;;0.30;0.30;;;15.70;99.90;;;;;;4321406;32;88552;-66
2022/10/06 08:36:10;;;;;;;0.60;0.60;;;15.60;99.90;;;;;;4328639;32;20288;-66
2022/10/06 08:38:37;;;;;;;0.30;0.30;;;15.70;99.90;;;;;;4332500;32;21140;-66
2022/10/06 08:41:16;;;;;;;10.95;1.25;;;15.80;99.90;;;;;;4323696;32;20601;-66
2022/10/06 08:43:43;;;;;;;1.90;0.93;;;15.80;99.90;;;;;;4322041;32;20681;-66
2022/10/06 08:46:11;;;;;;;0.30;0.30;;;15.80;99.90;;;;;;4328685;32;20110;-66
2022/10/06 08:48:37;;;;;;;0.40;0.40;;;15.80;99.90;;;;;;4326534;32;21095;-66
2022/10/06 08:51:17;;;;;;;0.50;0.50;;;15.80;99.90;;;;;;4319915;32;20185;-66
2022/10/06 08:54:09;;;;;;;0.75;0.75;;;15.80;99.90;;;;;;4329598;32;20102;-66
2022/10/06 08:56:48;;;;;;;0.62;0.62;;;15.70;99.90;;;;;;4333295;32;20478;-66
2022/10/06 08:59:15;;;;;;;0.50;0.50;;;15.90;99.90;;;;;;4345535;32;20082;-66
2022/10/06 09:01:44;;;;;;;7.95;0.68;;;15.90;99.90;;;;;;4328257;32;20105;-66
2022/10/06 09:04:25;;;;;;;2.33;1.55;;;15.90;99.90;;;;;;4322319;32;20335;-66
2022/10/06 09:07:10;;;;;;;;;;;16.10;99.90;;;;;;4331504;32;20171;-66
2022/10/06 09:09:52;;;;;;;6.60;1.08;;;16.20;99.90;;;;;;4343491;32;20458;-66
2022/10/06 09:12:40;;;;;;;0.30;0.30;;;16.30;99.90;;;;;;4325738;32;20102;-66
2022/10/06 09:15:20;;;;;;;0.50;0.50;;;16.40;99.90;;;;;;4323079;32;20115;-66
2022/10/06 09:17:55;;;;;;;0.50;0.50;;;16.50;99.90;;;;;;4339847;32;20179;-67
2022/10/06 09:20:33;;;;;;;0.62;0.60;;;16.70;99.90;;;;;;4310322;32;20364;-67
2022/10/06 09:23:03;;;;;;;0.45;0.45;;;16.70;99.90;;;;;;4321181;32;21356;-67
2022/10/06 09:25:29;;;;;;;0.40;0.40;;;16.70;99.90;;;;;;4324042;32;20237;-67
2022/10/06 09:27:57;;;;;;;0.40;0.40;;;16.60;99.90;;;;;;4336524;32;20525;-68
2022/10/06 09:30:23;;;;;;;0.50;0.50;;;16.60;99.90;;;;;;4343589;32;20241;-68
2022/10/06 09:32:58;;;;;;;0.50;0.50;;;16.80;99.90;;;;;;4349202;32;20211;-68
2022/10/06 09:35:26;;;;;;;0.62;0.62;;;16.90;99.90;;;;;;4348347;32;20216;-67
2022/10/06 09:37:57;;;;;;;7.68;0.80;;;17.00;99.90;;;;;;4361314;32;20117;-68
2022/10/06 09:40:49;;;;;;;0.30;0.30;;;17.10;99.90;;;;;;4371818;32;21673;-68
2022/10/06 09:43:27;;;;;;;0.30;0.30;;;17.10;99.90;;;;;;4367437;32;22066;-68
2022/10/06 09:45:54;;;;;;;0.60;0.60;;;17.10;99.90;;;;;;4379680;32;20297;-67
2022/10/06 09:48:23;;;;;;;0.40;0.40;;;16.80;99.90;;;;;;4377602;32;20104;-68
2022/10/06 09:51:16;;;;;;;0.40;0.40;;;16.60;99.90;;;;;;4374880;32;20340;-68
2022/10/06 09:54:01;;;;;;;0.52;0.52;;;16.50;99.90;;;;;;4367714;32;20110;-68
2022/10/06 09:56:27;;;;;;;0.30;0.30;;;16.50;99.90;;;;;;4371379;32;20264;-68
2022/10/06 09:58:55;;;;;;;0.43;0.43;;;16.60;99.90;;;;;;4382078;32;20345;-69
2022/10/06 10:01:25;;;;;;;0.85;0.85;;;16.80;99.90;;;;;;4375978;32;20532;-69
2022/10/06 10:03:53;;;;;;;0.43;0.43;;;16.90;99.90;;;;;;4374238;32;20112;-68
2022/10/06 10:06:26;;;;;;;0.40;0.40;;;16.70;99.90;;;;;;4374999;32;20183;-68
2022/10/06 10:09:11;;;;;;;2.30;1.05;;;16.80;99.90;;;;;;4380938;32;20090;-68
2022/10/06 10:12:37;;;;;;;0.40;0.40;;;16.80;99.90;;;;;;4363744;32;20081;-68
2022/10/06 10:14:22;;;;;;;0.40;0.40;;;17.00;99.90;;;;;;4350352;32;20140;-68
2022/10/06 10:16:49;;;;;;;3.90;0.50;;;17.10;99.90;;;;;;4363018;32;22273;-68
2022/10/06 10:19:26;;;;;;;0.50;0.50;;;17.10;99.90;;;;;;4344928;32;20102;-68
2022/10/06 10:21:55;;;;;;;15.88;0.55;;;17.10;99.90;;;;;;4349451;32;20283;-69
2022/10/06 10:24:46;;;;;;;0.47;0.47;;;17.00;99.90;;;;;;4360392;32;20818;-70
2022/10/06 10:27:20;;;;;;;0.50;0.50;;;17.10;99.90;;;;;;4360852;32;20121;-68
2022/10/06 10:30:01;;;;;;;0.50;0.50;;;17.00;99.90;;;;;;4372012;32;20085;-68
2022/10/06 10:32:50;;;;;;;1.45;0.47;;;16.90;99.90;;;;;;4367053;32;20414;-69
2022/10/06 10:35:34;;;;;;;0.77;0.77;;;16.80;99.90;;;;;;4353042;32;20093;-70
2022/10/06 10:38:09;;;;;;;0.52;0.50;;;16.80;99.90;;;;;;4371758;32;20121;-69
2022/10/06 10:40:46;;;;;;;0.77;0.77;;;17.00;99.90;;;;;;4382045;32;20402;-70
2022/10/06 10:43:22;;;;;;;0.50;0.50;;;17.10;99.90;;;;;;4375911;32;20309;-66
2022/10/06 10:45:59;;;;;;;0.40;0.40;;;17.30;99.90;;;;;;4379919;32;20378;-68
2022/10/06 10:48:32;;;;;;;0.60;0.60;;;17.40;99.90;;;;;;4357355;32;20179;-69
2022/10/06 10:51:21;;;;;;;0.52;0.52;;;17.60;99.90;;;;;;4348771;32;20823;-69
2022/10/06 10:54:04;;;;;;;2.97;1.25;;;17.50;99.90;;;;;;4347999;32;20268;-69
2022/10/06 10:56:32;;;;;;;0.40;0.40;;;17.70;99.90;;;;;;4303493;32;21602;-69
2022/10/06 10:59:07;;;;;;;2.53;1.75;;;17.80;99.90;;;;;;4338081;32;20077;-70
2022/10/06 11:01:42;;;;;;;1.40;0.70;;;18.00;99.90;;;;;;4339648;32;20114;-69
2022/10/06 11:04:10;;;;;;;0.30;0.30;;;18.00;99.90;;;;;;4338679;32;20222;-69
2022/10/06 11:06:48;;;;;;;5.35;0.95;;;18.00;99.90;;;;;;4352795;32;20093;-70
2022/10/06 11:09:19;;;;;;;9.07;1.90;;;18.00;99.90;;;;;;4358422;32;20428;-70
2022/10/06 11:11:53;;;;;;;11.40;0.57;;;17.90;99.90;;;;;;4343581;32;20307;-69
2022/10/06 11:14:42;;;;;;;0.40;0.40;;;17.80;99.90;;;;;;4353745;32;20118;-70
2022/10/06 11:17:38;;;;;;;0.40;0.40;;;17.90;99.90;;;;;;4353442;32;20109;-70
2022/10/06 11:20:35;;;;;;;0.20;0.20;;;18.30;99.90;;;;;;4332637;32;20142;-70
2022/10/06 11:23:24;;;;;;;0.32;0.32;;;18.60;99.90;;;;;;4364586;32;20768;-69
2022/10/06 11:26:18;;;;;;;0.30;0.30;;;18.80;99.90;;;;;;4329009;32;20177;-69
2022/10/06 11:29:00;;;;;;;0.37;0.37;;;18.70;99.90;;;;;;4351698;32;20675;-68
2022/10/06 11:31:43;;;;;;;0.40;0.40;;;18.80;99.90;;;;;;4346368;32;20221;-69
2022/10/06 11:34:09;;;;;;;0.30;0.30;;;19.10;99.90;;;;;;4342942;32;20228;-69
2022/10/06 11:36:57;;;;;;;0.70;0.70;;;19.40;99.90;;;;;;4348629;32;20650;-69
2022/10/06 11:39:32;;;;;;;0.37;0.37;;;19.50;99.90;;;;;;4369117;32;20173;-68
2022/10/06 11:42:22;;;;;;;0.40;0.40;;;19.50;99.90;;;;;;4357833;32;20161;-70
2022/10/06 11:44:55;;;;;;;0.30;0.30;;;19.60;99.90;;;;;;4343398;32;20082;-70
2022/10/06 11:47:27;;;;;;;0.30;0.30;;;20.10;99.90;;;;;;4352190;32;20126;-68
2022/10/06 11:49:54;;;;;;;0.30;0.30;;;20.60;99.90;;;;;;4347818;32;20315;-68
2022/10/06 11:52:22;;;;;;;0.75;0.52;;;21.00;99.30;;;;;;4361357;32;20115;-69
2022/10/06 11:54:52;;;;;;;0.20;0.20;;;21.30;99.00;;;;;;4370851;32;20461;-69
2022/10/06 11:57:27;;;;;;;0.20;0.20;;;21.60;98.10;;;;;;4363174;32;20647;-68
2022/10/06 11:59:55;;;;;;;0.20;0.20;;;21.90;97.50;;;;;;4372227;32;20058;-69
2022/10/06 12:02:38;;;;;;;0.20;0.20;;;22.30;96.90;;;;;;4376190;32;20085;-69
2022/10/06 12:05:14;;;;;;;19.75;0.57;;;22.30;96.30;;;;;;4350494;32;20330;-69
2022/10/06 12:07:58;;;;;;;3.08;1.23;;;22.60;96.10;;;;;;4379322;32;20609;-68
2022/10/06 12:10:30;;;;;;;0.20;0.20;;;22.90;95.20;;;;;;4393993;32;20237;-68
2022/10/06 12:13:26;;;;;;;1.27;0.80;;;22.10;95.60;;;;;;4386168;32;20785;-68
2022/10/06 12:16:09;;;;;;;0.30;0.30;;;21.80;96.60;;;;;;4395678;32;20107;-68
2022/10/06 12:19:01;;;;;;;0.15;0.15;;;22.10;96.40;;;;;;4380692;32;20070;-68
2022/10/06 12:21:32;;;;;;;0.22;0.22;;;22.30;95.40;;;;;;4375067;32;20077;-68
2022/10/06 12:24:05;;;;;;;0.20;0.20;;;22.00;95.60;;;;;;4380052;32;20768;-69
2022/10/06 12:26:49;;;;;;;3.95;0.95;;;22.00;95.90;;;;;;4372293;32;20249;-69
2022/10/06 12:29:54;;;;;;;0.93;0.77;;;22.20;95.50;;;;;;4371717;32;20263;-67
2022/10/06 12:32:50;;;;;;;1.17;0.57;;;22.30;95.30;;;;;;4361325;32;20615;-68
2022/10/06 12:35:38;;;;;;;0.10;0.10;;;22.40;94.60;;;;;;4341297;32;20109;-68
2022/10/06 12:38:25;;;;;;;0.15;0.15;;;22.50;94.20;;;;;;4380347;32;20094;-67
2022/10/06 12:40:54;;;;;;;0.20;0.20;;;22.60;94.10;;;;;;4373628;32;20314;-69
2022/10/06 12:43:26;;;;;;;0.93;0.70;;;22.50;93.50;;;;;;4387547;32;20126;-68
2022/10/06 12:45:59;;;;;;;1.55;0.32;;;22.30;93.90;;;;;;4371445;32;20082;-68
2022/10/06 12:48:31;;;;;;;0.20;0.20;;;22.20;93.40;;;;;;4379672;32;20090;-68
2022/10/06 12:51:21;;;;;;;0.52;0.52;;;21.80;94.50;;;;;;4368226;32;20069;-68
2022/10/06 12:54:05;;;;;;;0.40;0.40;;;21.50;94.40;;;;;;4367988;32;20065;-68
2022/10/06 12:56:35;;;;;;;0.65;0.40;;;21.00;94.10;;;;;;4369006;32;20644;-68
2022/10/06 12:59:19;;;;;;;;;;;20.70;94.20;;;;;;4375842;32;20549;-67
2022/10/06 13:01:46;;;;;;;0.45;0.45;;;20.50;94.60;;;;;;4373607;32;19978;-67
2022/10/06 13:04:41;;;;;;;0.47;0.47;;;20.40;94.60;;;;;;4367103;32;20374;-67
2022/10/06 13:07:26;;;;;;;0.30;0.30;;;20.10;95.10;;;;;;4361157;32;20224;-68
2022/10/06 13:09:58;;;;;;;2.80;1.05;;;19.90;95.80;;;;;;4397924;32;20147;-68
2022/10/06 13:12:27;;;;;;;0.30;0.30;;;19.90;96.60;;;;;;4384489;32;20074;-67
2022/10/06 13:15:13;;;;;;;0.75;0.60;;;19.70;96.10;;;;;;4375601;32;20082;-67
2022/10/06 13:17:46;;;;;;;0.30;0.30;;;19.40;96.30;;;;;;4364365;32;20346;-68